Latest Coastal Weather Observations for Kowanyama

IDQ60701

Issued at 10:45 pm EST Friday 24 October 2014 (issued every 10 minutes, with the page automatically refreshed every 10 minutes)

About coastal observations | Map of coastal stations | Coastal observations for QLD | Marine services | Other Formats
Station Details ID: 029038 Name: KOWANYAMA AIRPORT Lat: -15.48 Lon: 141.75 Height: 9.6 m
Data from the previous 72 hours. | See also: Recent months at Kowanyama
Date/Time
EST
Temp

°C
Wind Pressure Rain
since 9am
mm
Weather Cloud Vis
km
Sea
Height
m
Swell
Dir
 
Speed
knots
Gust
knots
hPa Trend Height
m
Period
s
Dir
24/10:30pm 24.2 NNE 5 8 1015.1 - 0.0 - - - - - - -
24/10:00pm 24.8 SSE 4 5 1014.5 - 0.0 - - - - - - -
24/09:30pm 25.0 S 1 3 1014.0 - 0.0 - - - - - - -
24/09:00pm 25.0 SSW 4 5 1013.3 - 0.0 - Mostly clear - - - - -
24/08:30pm 25.5 SSW 5 6 1013.0 - 0.0 - Partly cloudy - - - - -
24/08:00pm 25.8 SW 6 8 1012.7 - 0.0 - - - - - - -
24/07:30pm 26.3 WSW 7 10 1012.4 - 0.0 - Partly cloudy - - - - -
24/07:00pm 26.9 WSW 7 11 1012.1 - 0.0 - - - - - - -
24/06:30pm 28.0 WSW 9 13 1011.6 - 0.0 - - - - - - -
24/06:00pm 29.6 WSW 11 15 1011.2 - 0.0 - - - - - - -
24/05:30pm 31.3 WSW 9 13 1010.5 - 0.0 - - - - - - -
24/05:00pm 35.0 SE 9 14 1010.1 - 0.0 - - - - - - -
24/04:30pm 35.5 SE 11 16 1010.0 - 0.0 - Partly cloudy - - - - -
24/04:00pm 35.3 SSE 12 17 1010.2 - 0.0 - - - - - - -
24/03:30pm 35.3 ESE 9 15 1010.6 - 0.0 - - - - - - -
24/03:00pm 34.9 E 6 9 1010.9 - 0.0 - - - - - - -
24/02:30pm 34.5 NE 7 10 1011.2 - 0.0 - - - - - - -
24/02:00pm 35.2 S 11 14 1011.7 - 0.0 - - - - - - -
24/01:30pm 34.1 SE 10 18 1012.4 - 0.0 - - - - - - -
24/01:00pm 33.1 SE 9 14 1013.0 - 0.0 - - - - - - -
24/12:30pm 32.4 ESE 11 17 1013.7 - 0.0 - - - - - - -
24/12:00pm 32.2 E 8 10 1014.3 - 0.0 - - - - - - -
24/11:30am 31.5 ENE 11 17 1014.9 - 0.0 - - - - - - -
24/11:00am 30.8 ENE 8 12 1015.4 - 0.0 - - - - - - -
24/10:30am 29.9 E 10 16 1016.0 - 0.0 - - - - - - -
24/10:00am 28.6 E 9 17 1016.5 - 0.0 - - - - - - -
24/09:30am 27.9 NE 11 13 1016.9 - 0.0 - - - - - - -
24/09:00am 27.0 E 10 16 1017.1 - 0.0 - - - - - - -
24/08:30am 25.9 E 12 17 1017.2 - 0.0 - - - - - - -
24/08:00am 25.1 ENE 11 17 1017.1 - 0.0 - - - - - - -
24/07:30am 24.5 E 8 13 1016.8 - 0.0 - - - - - - -
24/07:00am 23.6 ENE 7 12 1016.5 - 0.0 - - - - - - -
24/06:30am 22.7 ENE 6 10 1016.0 - 0.0 - - - - - - -
24/06:00am 22.6 NE 6 11 1015.4 - 0.0 - - - - - - -
24/05:30am 22.9 ENE 6 10 1015.3 - 0.0 - - - - - - -
24/05:00am 23.0 ENE 5 8 1015.1 - 0.0 - - - - - - -
24/04:30am 22.6 ENE 4 7 1015.0 - 0.0 - - - - - - -
24/04:00am 22.3 E 3 5 1014.7 - 0.0 - - - - - - -
24/03:30am 22.7 NE 2 4 1014.3 - 0.0 - - - - - - -
24/03:00am 23.0 NNE 3 5 1014.4 - 0.0 - - - - - - -
24/02:30am 23.4 NE 2 5 1014.6 - 0.0 - - - - - - -
24/02:00am 24.1 NNE 4 5 1014.7 - 0.0 - - - - - - -
24/01:30am 24.7 NE 5 7 1015.0 - 0.0 - - - - - - -
24/01:00am 25.2 NNE 6 8 1015.1 - 0.0 - - - - - - -
24/12:30am 25.6 NNE 6 10 1015.2 - 0.0 - Partly cloudy - - - - -
24/12:00am 26.0 NNE 8 12 1015.1 - 0.0 - Partly cloudy - - - - -
 
Date/Time
EST
Temp

°C
Wind Pressure Rain
since 9am
mm
Weather Cloud Vis
km
Sea
Height
m
Swell
Dir
 
Speed
knots
Gust
knots
hPa Trend Height
m
Period
s
Dir
23/11:30pm 25.5 NNE 7 9 1015.3 - 0.0 - Partly cloudy - - - - -
23/11:00pm 24.3 NNE 2 4 1015.4 - 0.0 - - - - - - -
23/10:30pm 24.5 NE 3 4 1015.3 - 0.0 - - - - - - -
23/10:00pm 25.1 ENE 4 10 1015.0 - 0.0 - - - - - - -
23/09:30pm 24.2 SW 3 14 1013.9 - 0.0 - - - - - - -
23/09:00pm 24.3 SW 4 5 1013.3 - 0.0 - - - - - - -
23/08:30pm 25.0 WSW 4 5 1013.0 - 0.0 - - - - - - -
23/08:00pm 25.7 W 5 6 1012.7 - 0.0 - - - - - - -
23/07:30pm 26.4 WSW 6 8 1012.5 - 0.0 - - - - - - -
23/07:00pm 27.2 WSW 7 10 1012.2 - 0.0 - - - - - - -
23/06:30pm 28.1 WSW 11 14 1011.7 - 0.0 - - - - - - -
23/06:00pm 29.6 WSW 11 15 1011.3 - 0.0 - - - - - - -
23/05:30pm 30.8 W 14 18 1010.6 - 0.0 - - - - - - -
23/05:00pm 34.8 ESE 7 11 1010.2 - 0.0 - - - - - - -
23/04:30pm 34.9 ESE 6 11 1010.0 - 0.0 - - - - - - -
23/04:00pm 35.4 ESE 10 13 1010.2 - 0.0 - - - - - - -
23/03:30pm 34.9 SSE 7 12 1010.2 - 0.0 - - - - - - -
23/03:00pm 34.7 ENE 9 14 1010.4 - 0.0 - - - - - - -
23/02:30pm 34.4 ESE 8 13 1010.8 - 0.0 - - - - - - -
23/02:00pm 34.4 ESE 11 17 1011.3 - 0.0 - - - - - - -
23/01:30pm 33.5 ESE 10 17 1011.8 - 0.0 - - - - - - -
23/01:00pm 33.9 ESE 11 14 1012.6 - 0.0 - - - - - - -
23/12:30pm 32.4 ESE 11 20 1013.2 - 0.0 - - - - - - -
23/12:00pm 31.7 E 6 10 1014.0 - 0.0 - Mostly clear - - - - -
23/11:30am 31.0 ENE 8 12 1014.7 - 0.0 - - - - - - -
23/11:00am 30.4 E 11 14 1015.1 - 0.0 - - - - - - -
23/10:30am 28.8 E 11 16 1015.5 - 0.0 - - - - - - -
23/10:00am 28.4 E 8 12 1015.9 - 0.0 - - - - - - -
23/09:30am 27.9 E 9 16 1016.3 - 0.0 - - - - - - -
23/09:00am 27.2 E 11 16 1016.4 - 0.0 - - - - - - -
23/08:30am 26.0 E 9 15 1016.5 - 0.0 - - - - - - -
23/08:00am 25.3 E 9 14 1016.3 - 0.0 - - - - - - -
23/07:30am 24.4 ENE 7 13 1016.3 - 0.0 - - - - - - -
23/07:00am 23.6 E 6 10 1016.2 - 0.0 - - - - - - -
23/06:30am 22.8 ENE 6 9 1015.7 - 0.0 - - - - - - -
23/06:00am 22.5 ENE 5 7 1015.5 - 0.0 - - - - - - -
23/05:30am 22.8 ENE 6 9 1015.2 - 0.0 - - - - - - -
23/05:00am 23.0 ENE 6 10 1014.9 - 0.0 - - - - - - -
23/04:30am 23.4 E 7 11 1014.7 - 0.0 - - - - - - -
23/04:00am 23.6 E 6 9 1014.7 - 0.0 - - - - - - -
23/03:30am 24.0 E 5 9 1014.7 - 0.0 - Partly cloudy - - - - -
23/03:00am 24.5 ENE 8 14 1014.7 - 0.0 - Mostly clear - - - - -
23/02:30am 25.3 ENE 7 11 1014.6 - 0.0 - Partly cloudy - - - - -
23/02:00am 25.8 ENE 7 14 1014.8 - 0.0 - Partly cloudy - - - - -
23/01:30am 25.8 ENE 6 10 1014.9 - 0.0 - Partly cloudy - - - - -
23/01:00am 26.3 NE 7 13 1015.1 - 0.0 - - - - - - -
23/12:30am 26.5 ENE 7 11 1015.4 - 0.0 - Partly cloudy - - - - -
23/12:00am 25.6 NNE 2 7 1015.2 - 0.0 - Mostly cloudy - - - - -
 
Date/Time
EST
Temp

°C
Wind Pressure Rain
since 9am
mm
Weather Cloud Vis
km
Sea
Height
m
Swell
Dir
 
Speed
knots
Gust
knots
hPa Trend Height
m
Period
s
Dir
22/11:30pm 25.8 ENE 3 5 1015.6 - 0.0 - Partly cloudy - - - - -
22/11:00pm 26.0 ENE 4 6 1015.4 - 0.0 - Partly cloudy - - - - -
22/10:30pm 25.9 ENE 7 12 1014.9 - 0.0 - Cloudy - - - - -
22/10:00pm 25.3 SSW 5 6 1013.9 - 0.0 - Partly cloudy - - - - -
22/09:30pm 25.5 SSW 5 7 1013.7 - 0.0 - Partly cloudy - - - - -
22/09:00pm 25.5 WSW 4 5 1013.4 - 0.0 - Partly cloudy - - - - -
22/08:30pm 25.9 W 3 4 1013.3 - 0.0 - Partly cloudy - - - - -
22/08:00pm 26.3 WSW 5 7 1013.0 - 0.0 - Partly cloudy - - - - -
22/07:30pm 26.9 WSW 7 9 1012.7 - 0.0 - Partly cloudy - - - - -
22/07:00pm 27.6 WSW 8 12 1012.5 - 0.0 - - - - - - -
22/06:30pm 28.7 WSW 10 13 1012.2 - 0.0 - - - - - - -
22/06:00pm 30.1 WSW 10 14 1011.8 - 0.0 - - - - - - -
22/05:30pm 31.1 W 11 15 1011.5 - 0.0 - - - - - - -
22/05:00pm 32.1 WSW 11 16 1010.9 - 0.0 - - - - - - -
22/04:30pm 33.2 WSW 7 14 1011.0 - 0.0 - - - - - - -
22/04:00pm 35.4 SE 10 14 1010.9 - 0.0 - - - - - - -
22/03:30pm 34.7 SE 7 10 1011.1 - 0.0 - - - - - - -
22/03:00pm 34.6 E 8 13 1011.4 - 0.0 - - - - - - -
22/02:30pm 34.4 ESE 10 15 1011.8 - 0.0 - - - - - - -
22/02:00pm 34.4 S 11 14 1012.2 - 0.0 - - - - - - -
22/01:30pm 33.7 SSE 10 18 1012.9 - 0.0 - - - - - - -
22/01:00pm 33.4 S 7 10 1013.5 - 0.0 - - - - - - -
22/12:30pm 32.2 SE 8 19 1014.1 - 0.0 - - - - - - -
22/12:00pm 31.6 ESE 7 12 1014.8 - 0.0 - - - - - - -
22/11:30am 31.2 ESE 8 13 1015.2 - 0.0 - - - - - - -
22/11:00am 31.0 E 8 12 1015.7 - 0.0 - - - - - - -
22/10:30am 29.2 ESE 9 14 1016.0 - 0.0 - - - - - - -
22/10:00am 28.6 E 9 13 1016.4 - 0.0 - - - - - - -
22/09:30am 28.2 E 9 14 1016.6 - 0.0 - - - - - - -
22/09:00am 27.2 E 11 16 1016.8 - 0.0 - - - - - - -
22/08:30am 26.6 E 10 16 1016.8 - 0.0 - - - - - - -
22/08:00am 25.8 E 10 17 1016.8 - 0.0 - - - - - - -
22/07:30am 24.7 E 9 17 1016.6 - 0.0 - - - - - - -
22/07:00am 23.9 E 7 12 1016.2 - 0.0 - - - - - - -
22/06:30am 22.5 E 4 9 1016.0 - 0.0 - - - - - - -
22/06:00am 22.3 ENE 4 6 1015.7 - 0.0 - - - - - - -
22/05:30am 22.7 E 4 6 1015.5 - 0.0 - - - - - - -
22/05:00am 23.1 E 5 7 1015.2 - 0.0 - - - - - - -
22/04:30am 23.6 E 5 8 1014.9 - 0.0 - - - - - - -
22/04:00am 23.9 E 5 8 1014.7 - 0.0 - - - - - - -
22/03:30am 24.2 ENE 5 9 1014.7 - 0.0 - - - - - - -
22/03:00am 24.6 ENE 5 8 1014.5 - 0.0 - - - - - - -
22/02:30am 25.2 ENE 7 13 1014.5 - 0.0 - - - - - - -
22/02:00am 25.2 ENE 7 10 1014.6 - 0.0 - - - - - - -
22/01:30am 23.8 NE 3 5 1014.7 - 0.0 - Partly cloudy - - - - -
22/01:00am 23.3 NNE 2 4 1014.8 - 0.0 - Cloudy - - - - -
22/12:30am 23.4 ENE 3 4 1015.2 - 0.0 - Partly cloudy - - - - -
22/12:00am 24.1 E 3 4 1015.4 - 0.0 - - - - - - -
 
Date/Time
EST
Temp

°C
Wind Pressure Rain
since 9am
mm
Weather Cloud Vis
km
Sea
Height
m
Swell
Dir
 
Speed
knots
Gust
knots
hPa Trend Height
m
Period
s
Dir
21/11:30pm 24.6 E 4 6 1015.7 - 0.0 - - - - - - -
21/11:00pm 24.8 E 7 11 1015.6 - 0.0 - - - - - - -

Other Formats:

Comma delimited format used in spreadsheet applications
http://www.bom.gov.au/fwo/IDQ60701/IDQ60701.94268.axf

JavaScript Object Notation format (JSON) in row-major order
http://www.bom.gov.au/fwo/IDQ60701/IDQ60701.94268.json